createdAt,value
2023-03-13T00:12:16.210Z,8.9
2023-03-13T00:27:25.709Z,9
2023-03-13T00:42:35.567Z,9
2023-03-13T00:57:45.126Z,9.2
2023-03-13T01:12:55.653Z,9.4
2023-03-13T01:28:05.464Z,9.4
2023-03-13T01:43:26.344Z,9.4
2023-03-13T01:58:37.801Z,9.2
2023-03-13T02:13:47.381Z,8.9
2023-03-13T02:28:56.291Z,8.8
2023-03-13T02:44:05.906Z,8.6
2023-03-13T02:59:15.459Z,8.5
2023-03-13T03:14:25.026Z,8.4
2023-03-13T03:29:34.284Z,8.3
2023-03-13T03:44:43.429Z,8.3
2023-03-13T03:59:52.753Z,8.3
2023-03-13T04:15:01.943Z,8.3
2023-03-13T04:30:11.685Z,8.3
2023-03-13T04:45:21.178Z,8.3
2023-03-13T05:00:30.753Z,8.2
2023-03-13T05:15:40.496Z,8.2
2023-03-13T05:30:50.255Z,8.2
2023-03-13T05:46:00.206Z,8.3
2023-03-13T06:01:10.857Z,8.5
2023-03-13T06:17:43.929Z,9.1
2023-03-13T06:32:54.642Z,8.9
2023-03-13T06:48:05.040Z,9.1
2023-03-13T07:03:15.981Z,9.4
2023-03-13T07:18:25.894Z,9.8
2023-03-13T07:33:36.304Z,10.3
2023-03-13T07:48:47.050Z,10.9
2023-03-13T08:03:56.775Z,11.2
2023-03-13T08:19:06.556Z,11.5
2023-03-13T08:34:17.627Z,11.7
2023-03-13T08:49:27.783Z,11.9
2023-03-13T09:04:37.603Z,12.1
2023-03-13T09:19:59.306Z,12.5
2023-03-13T09:35:11.668Z,12.6
2023-03-13T09:50:21.339Z,12.7
2023-03-13T10:05:31.581Z,12.9
2023-03-13T10:20:41.584Z,13.1
2023-03-13T10:35:51.736Z,13.3
2023-03-13T10:51:02.862Z,13.8
2023-03-13T11:06:13.377Z,14.2
2023-03-13T11:21:23.453Z,14.4
2023-03-13T11:36:33.557Z,14.8
2023-03-13T11:51:43.495Z,15.3
2023-03-13T12:06:54.061Z,15.9
2023-03-13T12:22:04.373Z,16.3
2023-03-13T12:37:15.347Z,17
2023-03-13T12:52:25.410Z,17.8
2023-03-13T13:07:34.869Z,17.6
2023-03-13T13:22:44.418Z,17.2
2023-03-13T13:37:54.083Z,17.9
2023-03-13T13:53:04.686Z,18.6
2023-03-13T14:08:14.549Z,18.3
2023-03-13T14:23:24.598Z,18.1
2023-03-13T14:38:33.920Z,17.6
2023-03-13T14:53:44.685Z,18
2023-03-13T15:08:54.157Z,17.5
2023-03-13T15:24:09.005Z,17.4
2023-03-13T15:39:18.772Z,17.6
2023-03-13T15:54:29.327Z,17.6
2023-03-13T16:09:39.068Z,17
2023-03-13T16:24:48.561Z,16.6
2023-03-13T16:39:58.775Z,16.6
2023-03-13T16:55:08.515Z,16.3
2023-03-13T17:10:19.053Z,16
2023-03-13T17:25:29.135Z,15.8
2023-03-13T17:40:38.951Z,15.5
2023-03-13T17:55:48.473Z,15.3
2023-03-13T18:10:58.308Z,15.1
2023-03-13T18:26:08.080Z,14.8
2023-03-13T18:41:17.050Z,14.6
2023-03-13T18:56:27.109Z,14.4
2023-03-13T19:11:36.591Z,14.2
2023-03-13T19:26:46.411Z,14.1
2023-03-13T19:41:57.724Z,13.9
2023-03-13T19:57:08.714Z,13.8
2023-03-13T20:12:18.841Z,13.6
2023-03-13T20:27:28.119Z,13.5
2023-03-13T20:42:44.344Z,13.5
2023-03-13T20:57:56.157Z,13.4
2023-03-13T21:13:11.031Z,13.4
2023-03-13T21:28:21.071Z,13.3
2023-03-13T21:43:31.044Z,13.2
2023-03-13T21:58:40.911Z,13.1
2023-03-13T22:13:50.736Z,13
2023-03-13T22:29:00.088Z,12.9
2023-03-13T22:44:09.671Z,12.8
2023-03-13T22:59:19.201Z,12.6
2023-03-13T23:14:28.759Z,12.4
2023-03-13T23:29:38.576Z,12.4
2023-03-13T23:44:47.971Z,12.3
2023-03-13T23:59:59.549Z,12.1
